createdAt,value
2023-05-15T00:00:10.912Z,94947.81
2023-05-15T00:02:38.956Z,94983.03
2023-05-15T00:05:08.050Z,94958.56
2023-05-15T00:07:36.247Z,94921.22
2023-05-15T00:10:03.476Z,94985.63
2023-05-15T00:12:30.515Z,95015.09
2023-05-15T00:14:57.199Z,94967.50
2023-05-15T00:17:23.796Z,95020.41
2023-05-15T00:19:50.456Z,95004.84
2023-05-15T00:22:17.050Z,95007.09
2023-05-15T00:24:43.890Z,95009.66
2023-05-15T00:27:10.570Z,95017.53
2023-05-15T00:29:37.178Z,95015.09
2023-05-15T00:32:04.054Z,95009.66
2023-05-15T00:34:30.786Z,95009.19
2023-05-15T00:36:57.438Z,95021.47
2023-05-15T00:39:24.208Z,94997.44
2023-05-15T00:41:54.341Z,94965.22
2023-05-15T00:44:21.958Z,94994.69
2023-05-15T00:46:50.197Z,95004.69
2023-05-15T00:49:19.611Z,95015.28
2023-05-15T00:51:46.382Z,94998.94
2023-05-15T00:54:12.997Z,95001.06
2023-05-15T00:56:41.773Z,94995.47
2023-05-15T00:59:08.720Z,95009.38
2023-05-15T01:01:35.697Z,94986.84
2023-05-15T01:04:02.912Z,94999.69
2023-05-15T01:06:32.805Z,95008.31
2023-05-15T01:09:04.656Z,94988.34
2023-05-15T01:11:36.455Z,94968.81
2023-05-15T01:14:07.848Z,94998.47
2023-05-15T01:16:36.183Z,94985.31
2023-05-15T01:19:04.777Z,94906.56
2023-05-15T01:21:40.904Z,94978.06
2023-05-15T01:24:41.733Z,94971.25
2023-05-15T01:27:19.312Z,94941.31
2023-05-15T01:29:56.102Z,94960.38
2023-05-15T01:32:43.196Z,94919.56
2023-05-15T01:35:27.520Z,94967.19
2023-05-15T01:38:03.914Z,94960.38
2023-05-15T01:40:30.585Z,94950.88
2023-05-15T01:43:05.370Z,94920.63
2023-05-15T01:45:33.661Z,94957.81
2023-05-15T01:48:02.227Z,94908.84
2023-05-15T01:50:32.798Z,94952.38
2023-05-15T01:53:02.740Z,94908.38
2023-05-15T01:55:30.856Z,94936.81
2023-05-15T01:58:01.508Z,94963.41
2023-05-15T02:00:29.760Z,94951.63
2023-05-15T02:02:57.869Z,94965.06
2023-05-15T02:05:25.993Z,94970.22
2023-05-15T02:07:53.707Z,94956.44
2023-05-15T02:10:21.411Z,94959.03
2023-05-15T02:12:50.246Z,94959.91
2023-05-15T02:15:17.475Z,94872.09
2023-05-15T02:17:44.190Z,94953.41
2023-05-15T02:20:11.718Z,94943.28
2023-05-15T02:22:38.521Z,94963.84
2023-05-15T02:25:06.159Z,94949.19
2023-05-15T02:27:45.691Z,94935.75
2023-05-15T02:30:29.717Z,94895.84
2023-05-15T02:33:21.556Z,94907.91
2023-05-15T02:35:58.936Z,94938.88
2023-05-15T02:38:33.323Z,94902.78
2023-05-15T02:41:01.109Z,94938.75
2023-05-15T02:43:29.312Z,94955.56
2023-05-15T02:45:57.238Z,94959.31
2023-05-15T02:48:25.338Z,94946.19
2023-05-15T02:50:53.344Z,94929.56
2023-05-15T02:53:19.888Z,94924.06
2023-05-15T02:55:46.511Z,94936.31
2023-05-15T02:58:13.474Z,94940.25
2023-05-15T03:00:40.288Z,94920.94
2023-05-15T03:03:06.991Z,94862.59
2023-05-15T03:05:33.678Z,94911.56
2023-05-15T03:08:01.196Z,94959.78
2023-05-15T03:10:29.009Z,94912.03
2023-05-15T03:12:59.388Z,94929.22
2023-05-15T03:15:26.401Z,94920.59
2023-05-15T03:17:53.251Z,94942.81
2023-05-15T03:20:20.060Z,94941.47
2023-05-15T03:22:46.769Z,94927.25
2023-05-15T03:25:13.390Z,94923.66
2023-05-15T03:27:40.027Z,94939.22
2023-05-15T03:30:07.351Z,94935.28
2023-05-15T03:32:34.006Z,94927.72
2023-05-15T03:35:01.118Z,94923.63
2023-05-15T03:37:27.884Z,94933.88
2023-05-15T03:39:56.228Z,94933.13
2023-05-15T03:42:25.250Z,94916.03
2023-05-15T03:44:52.413Z,94935.38
2023-05-15T03:47:19.414Z,94942.66
2023-05-15T03:49:46.980Z,94959.00
2023-05-15T03:52:13.971Z,94929.66
2023-05-15T03:54:42.214Z,94945.66
2023-05-15T03:57:09.086Z,94884.44
2023-05-15T03:59:35.751Z,94944.13
2023-05-15T04:02:05.481Z,94909.66
2023-05-15T04:04:33.050Z,94939.22
2023-05-15T04:07:00.315Z,94932.41
2023-05-15T04:09:27.027Z,94935.75
2023-05-15T04:11:53.800Z,94937.41
2023-05-15T04:14:21.007Z,94938.63
2023-05-15T04:16:47.820Z,94924.59
2023-05-15T04:19:15.081Z,94956.72
2023-05-15T04:21:41.809Z,94959.91
2023-05-15T04:24:08.905Z,94944.16
2023-05-15T04:26:36.607Z,94903.97
2023-05-15T04:29:04.773Z,94940.53
2023-05-15T04:31:32.203Z,94875.88
2023-05-15T04:33:58.846Z,94930.72
2023-05-15T04:36:25.705Z,94930.91
2023-05-15T04:38:52.348Z,94905.81
2023-05-15T04:41:18.988Z,94883.31
2023-05-15T04:43:46.006Z,94891.97
2023-05-15T04:46:12.994Z,94916.66
2023-05-15T04:48:39.830Z,94930.91
2023-05-15T04:51:07.571Z,94939.97
2023-05-15T04:53:35.228Z,94939.94
2023-05-15T04:56:01.853Z,94938.88
2023-05-15T04:58:28.631Z,94930.81
2023-05-15T05:00:55.704Z,94919.81
2023-05-15T05:03:22.796Z,94925.50
2023-05-15T05:05:49.849Z,94886.22
2023-05-15T05:08:17.133Z,94894.69
2023-05-15T05:10:43.841Z,94925.25
2023-05-15T05:13:10.813Z,94923.75
2023-05-15T05:15:37.785Z,94935.22
2023-05-15T05:18:04.858Z,94922.75
2023-05-15T05:20:31.707Z,94931.78
2023-05-15T05:22:58.328Z,94916.69
2023-05-15T05:25:25.531Z,94919.69
2023-05-15T05:27:52.475Z,94916.91
2023-05-15T05:30:19.819Z,94887.59
2023-05-15T05:32:46.900Z,94916.25
2023-05-15T05:35:14.185Z,94917.13
2023-05-15T05:37:41.647Z,94913.13
2023-05-15T05:40:09.082Z,94870.88
2023-05-15T05:42:35.860Z,94901.69
2023-05-15T05:45:02.735Z,94904.06
2023-05-15T05:47:29.724Z,94915.78
2023-05-15T05:49:56.908Z,94906.00
2023-05-15T05:52:23.783Z,94917.41
2023-05-15T05:54:50.720Z,94932.16
2023-05-15T05:57:17.571Z,94928.56
2023-05-15T05:59:45.902Z,94883.09
2023-05-15T06:02:13.690Z,94903.28
2023-05-15T06:04:40.528Z,94919.00
2023-05-15T06:07:07.557Z,94876.41
2023-05-15T06:09:34.533Z,94920.09
2023-05-15T06:12:04.643Z,94894.78
2023-05-15T06:14:31.496Z,94910.59
2023-05-15T06:16:58.702Z,94899.22
2023-05-15T06:19:25.910Z,94875.16
2023-05-15T06:21:53.422Z,94909.78
2023-05-15T06:24:20.190Z,94922.66
2023-05-15T06:26:46.931Z,94920.56
2023-05-15T06:29:13.572Z,94923.25
2023-05-15T06:31:40.220Z,94921.69
2023-05-15T06:34:07.215Z,94926.88
2023-05-15T06:36:43.510Z,94922.19
2023-05-15T06:39:13.041Z,94920.63
2023-05-15T06:41:40.350Z,94925.91
2023-05-15T06:44:07.133Z,94938.00
2023-05-15T06:46:33.979Z,94917.88
2023-05-15T06:49:00.927Z,94913.00
2023-05-15T06:51:27.939Z,94902.44
2023-05-15T06:53:55.047Z,94914.19
2023-05-15T06:56:22.135Z,94916.94
2023-05-15T06:58:48.940Z,94912.31
2023-05-15T07:01:15.799Z,94903.59
2023-05-15T07:03:43.172Z,94868.28
2023-05-15T07:06:09.897Z,94924.94
2023-05-15T07:08:36.769Z,94878.97
2023-05-15T07:11:03.963Z,94906.44
2023-05-15T07:13:30.815Z,94922.56
2023-05-15T07:16:00.142Z,94910.47
2023-05-15T07:18:27.033Z,94927.53
2023-05-15T07:20:54.205Z,94918.56
2023-05-15T07:23:21.043Z,94936.69
2023-05-15T07:25:48.474Z,94902.59
2023-05-15T07:28:15.354Z,94898.28
2023-05-15T07:30:42.634Z,94904.13
2023-05-15T07:33:09.807Z,94929.75
2023-05-15T07:35:36.764Z,94896.94
2023-05-15T07:38:03.680Z,94909.94
2023-05-15T07:40:31.011Z,94872.16
2023-05-15T07:42:58.648Z,94920.59
2023-05-15T07:45:25.785Z,94926.16
2023-05-15T07:47:52.868Z,94920.03
2023-05-15T07:50:19.671Z,94933.91
2023-05-15T07:52:46.753Z,94948.84
2023-05-15T07:55:13.748Z,94866.06
2023-05-15T07:57:45.793Z,94938.56
2023-05-15T08:00:13.177Z,94919.53
2023-05-15T08:02:40.802Z,94904.81
2023-05-15T08:05:08.070Z,94900.75
2023-05-15T08:07:35.141Z,94907.66
2023-05-15T08:10:02.141Z,94951.13
2023-05-15T08:12:29.153Z,94889.81
2023-05-15T08:14:56.543Z,94957.00
2023-05-15T08:17:24.881Z,94918.09
2023-05-15T08:19:52.382Z,94951.19
2023-05-15T08:22:19.434Z,94935.63
2023-05-15T08:24:46.340Z,94955.59
2023-05-15T08:27:13.370Z,94906.25
2023-05-15T08:29:40.382Z,94917.81
2023-05-15T08:32:08.819Z,94875.78
2023-05-15T08:34:35.829Z,94942.31
2023-05-15T08:37:02.629Z,94941.28
2023-05-15T08:39:29.307Z,94918.06
2023-05-15T08:42:08.701Z,94912.28
2023-05-15T08:44:36.323Z,94903.91
2023-05-15T08:47:04.081Z,94882.69
2023-05-15T08:49:46.411Z,94937.69
2023-05-15T08:52:13.332Z,94941.84
2023-05-15T08:54:41.119Z,94876.38
2023-05-15T08:57:09.488Z,94884.13
2023-05-15T08:59:37.704Z,94927.03
2023-05-15T09:02:04.938Z,94873.72
2023-05-15T09:04:32.176Z,94873.66
2023-05-15T09:07:03.823Z,94876.53
2023-05-15T09:09:33.144Z,94864.56
2023-05-15T09:12:02.457Z,94871.78
2023-05-15T09:14:30.442Z,94860.50
2023-05-15T09:16:57.387Z,94894.78
2023-05-15T09:19:24.384Z,94892.13
2023-05-15T09:21:51.130Z,94887.78
2023-05-15T09:24:23.785Z,94833.09
2023-05-15T09:27:09.443Z,94894.03
2023-05-15T09:29:38.160Z,94904.53
2023-05-15T09:32:08.031Z,94879.31
2023-05-15T09:34:38.053Z,94898.28
2023-05-15T09:37:07.656Z,94899.53
2023-05-15T09:39:41.925Z,94844.81
2023-05-15T09:42:10.589Z,94866.81
2023-05-15T09:44:42.512Z,94876.13
2023-05-15T09:47:13.904Z,94856.34
2023-05-15T09:49:44.280Z,94879.09
2023-05-15T09:52:11.146Z,94844.84
2023-05-15T09:54:38.410Z,94865.69
2023-05-15T09:57:09.931Z,94864.00
2023-05-15T09:59:42.998Z,94870.75
2023-05-15T10:02:13.327Z,94844.69
2023-05-15T10:04:40.626Z,94868.00
2023-05-15T10:07:09.684Z,94783.31
2023-05-15T10:09:36.709Z,94868.28
2023-05-15T10:12:05.550Z,94798.44
2023-05-15T10:14:32.617Z,94794.66
2023-05-15T10:17:00.491Z,94885.81
2023-05-15T10:19:29.694Z,94877.16
2023-05-15T10:21:59.683Z,94858.34
2023-05-15T10:24:30.139Z,94905.19
2023-05-15T10:26:57.620Z,94888.91
2023-05-15T10:29:27.171Z,94884.16
2023-05-15T10:31:55.013Z,94897.19
2023-05-15T10:34:22.375Z,94845.19
2023-05-15T10:36:50.124Z,94882.44
2023-05-15T10:39:17.844Z,94866.91
2023-05-15T10:41:46.030Z,94915.41
2023-05-15T10:44:14.874Z,94904.38
2023-05-15T10:46:41.787Z,94875.16
2023-05-15T10:49:08.701Z,94889.44
2023-05-15T10:51:39.687Z,94874.19
2023-05-15T10:54:06.706Z,94882.72
2023-05-15T10:56:34.867Z,94896.44
2023-05-15T10:59:10.634Z,94851.19
2023-05-15T11:01:39.590Z,94878.66
2023-05-15T11:04:17.692Z,94827.72
2023-05-15T11:06:49.495Z,94810.41
2023-05-15T11:09:22.744Z,94877.84
2023-05-15T11:11:52.706Z,94878.56
2023-05-15T11:14:20.191Z,94874.28
2023-05-15T11:16:55.931Z,94872.47
2023-05-15T11:19:22.668Z,94875.03
2023-05-15T11:22:16.866Z,94860.97
2023-05-15T11:24:59.171Z,94872.56
2023-05-15T11:27:27.272Z,94880.25
2023-05-15T11:30:11.033Z,94854.59
2023-05-15T11:32:59.080Z,94864.63
2023-05-15T11:35:30.255Z,94866.69
2023-05-15T11:37:58.613Z,94846.94
2023-05-15T11:40:32.949Z,94820.38
2023-05-15T11:43:20.681Z,94856.19
2023-05-15T11:45:56.278Z,94854.91
2023-05-15T11:48:25.452Z,94837.03
2023-05-15T11:50:55.473Z,94839.88
2023-05-15T11:53:24.177Z,94799.66
2023-05-15T11:55:53.066Z,94808.94
2023-05-15T11:58:21.576Z,94842.69
2023-05-15T12:00:50.349Z,94831.69
2023-05-15T12:03:32.296Z,94852.69
2023-05-15T12:06:01.221Z,94840.44
2023-05-15T12:08:36.194Z,94838.94
2023-05-15T12:11:06.000Z,94835.44
2023-05-15T12:13:33.969Z,94820.44
2023-05-15T12:16:04.692Z,94837.13
2023-05-15T12:18:32.839Z,94775.66
2023-05-15T12:21:02.161Z,94788.44
2023-05-15T12:23:29.116Z,94791.69
2023-05-15T12:26:01.357Z,94791.66
2023-05-15T12:28:29.665Z,94795.94
2023-05-15T12:30:57.093Z,94715.00
2023-05-15T12:33:25.164Z,94778.69
2023-05-15T12:35:58.270Z,94743.97
2023-05-15T12:38:27.343Z,94776.13
2023-05-15T12:40:54.489Z,94742.16
2023-05-15T12:43:25.226Z,94765.53
2023-05-15T12:45:55.329Z,94717.72
2023-05-15T12:48:34.234Z,94739.66
2023-05-15T12:51:08.329Z,94737.63
2023-05-15T12:53:36.368Z,94720.22
2023-05-15T12:56:04.954Z,94730.38
2023-05-15T12:58:32.490Z,94712.78
2023-05-15T13:01:08.539Z,94751.47
2023-05-15T13:03:36.205Z,94735.53
2023-05-15T13:06:03.985Z,94773.25
2023-05-15T13:08:31.774Z,94768.91
2023-05-15T13:11:02.157Z,94742.94
2023-05-15T13:13:47.117Z,94755.56
2023-05-15T13:16:21.768Z,94755.31
2023-05-15T13:18:50.345Z,94744.63
2023-05-15T13:21:18.130Z,94673.84
2023-05-15T13:23:45.370Z,94739.69
2023-05-15T13:26:12.242Z,94691.34
2023-05-15T13:28:39.513Z,94725.22
2023-05-15T13:31:07.462Z,94738.53
2023-05-15T13:33:35.700Z,94740.03
2023-05-15T13:36:02.842Z,94737.28
2023-05-15T13:38:29.811Z,94721.25
2023-05-15T13:40:56.711Z,94737.34
2023-05-15T13:43:26.904Z,94735.41
2023-05-15T13:45:54.433Z,94712.00
2023-05-15T13:48:21.395Z,94766.91
2023-05-15T13:50:48.255Z,94732.75
2023-05-15T13:53:17.164Z,94716.13
2023-05-15T13:55:45.575Z,94755.31
2023-05-15T13:58:13.371Z,94724.78
2023-05-15T14:00:45.393Z,94747.00
2023-05-15T14:03:15.113Z,94760.06
2023-05-15T14:05:42.488Z,94771.84
2023-05-15T14:08:09.460Z,94743.53
2023-05-15T14:10:37.619Z,94714.03
2023-05-15T14:13:08.151Z,94755.50
2023-05-15T14:15:35.651Z,94742.81
2023-05-15T14:18:04.049Z,94748.19
2023-05-15T14:20:31.299Z,94744.69
2023-05-15T14:22:58.022Z,94761.06
2023-05-15T14:25:25.868Z,94751.34
2023-05-15T14:27:52.700Z,94747.09
2023-05-15T14:30:19.760Z,94748.09
2023-05-15T14:32:46.923Z,94763.00
2023-05-15T14:35:13.724Z,94736.19
2023-05-15T14:37:40.833Z,94745.03
2023-05-15T14:40:09.099Z,94745.13
2023-05-15T14:42:36.014Z,94688.44
2023-05-15T14:45:03.134Z,94731.47
2023-05-15T14:47:30.628Z,94721.34
2023-05-15T14:49:57.483Z,94711.19
2023-05-15T14:52:24.331Z,94673.25
2023-05-15T14:55:08.075Z,94707.72
2023-05-15T14:57:36.821Z,94698.03
2023-05-15T15:00:06.098Z,94693.19
2023-05-15T15:02:33.095Z,94699.22
2023-05-15T15:05:00.387Z,94692.97
2023-05-15T15:07:29.474Z,94655.03
2023-05-15T15:09:56.237Z,94628.59
2023-05-15T15:12:24.224Z,94637.75
2023-05-15T15:14:51.081Z,94683.38
2023-05-15T15:17:18.683Z,94673.47
2023-05-15T15:19:46.426Z,94632.16
2023-05-15T15:22:13.302Z,94652.16
2023-05-15T15:24:40.563Z,94692.34
2023-05-15T15:27:07.807Z,94645.38
2023-05-15T15:29:46.888Z,94694.22
2023-05-15T15:32:14.244Z,94582.66
2023-05-15T15:34:41.517Z,94652.56
2023-05-15T15:37:09.088Z,94698.53
2023-05-15T15:39:51.336Z,94648.47
2023-05-15T15:42:23.018Z,94710.88
2023-05-15T15:44:49.752Z,94713.84
2023-05-15T15:47:23.030Z,94642.69
2023-05-15T15:49:53.519Z,94602.31
2023-05-15T15:52:22.172Z,94714.06
2023-05-15T15:54:49.266Z,94677.91
2023-05-15T15:57:22.958Z,94648.16
2023-05-15T16:02:52.839Z,94690.66
2023-05-15T16:05:20.099Z,94698.41
2023-05-15T16:07:52.036Z,94693.09
2023-05-15T16:10:21.874Z,94638.25
2023-05-15T16:12:48.933Z,94712.38
2023-05-15T16:15:23.366Z,94650.25
2023-05-15T16:17:53.489Z,94707.19
2023-05-15T16:20:21.182Z,94709.44
2023-05-15T16:27:07.537Z,94718.25
2023-05-15T16:29:34.438Z,94744.25
2023-05-15T16:32:01.597Z,94684.00
2023-05-15T16:34:28.426Z,94672.00
2023-05-15T16:36:55.601Z,94733.94
2023-05-15T16:39:22.326Z,94679.72
2023-05-15T16:41:52.143Z,94688.72
2023-05-15T16:44:19.439Z,94718.97
2023-05-15T16:46:46.436Z,94711.47
2023-05-15T16:49:13.507Z,94735.44
2023-05-15T16:51:41.201Z,94735.19
2023-05-15T16:54:08.006Z,94727.44
2023-05-15T16:56:35.184Z,94730.41
2023-05-15T16:59:02.154Z,94698.94
2023-05-15T17:01:31.306Z,94732.41
2023-05-15T17:03:59.926Z,94742.63
2023-05-15T17:06:30.116Z,94749.88
2023-05-15T17:08:57.350Z,94740.13
2023-05-15T17:11:24.369Z,94733.91
2023-05-15T17:13:52.766Z,94725.38
2023-05-15T17:16:19.877Z,94702.41
2023-05-15T17:18:47.059Z,94686.94
2023-05-15T17:21:18.845Z,94728.38
2023-05-15T17:23:47.654Z,94766.84
2023-05-15T17:26:21.530Z,94744.06
2023-05-15T17:28:50.993Z,94673.06
2023-05-15T17:31:18.397Z,94698.63
2023-05-15T17:33:47.524Z,94766.38
2023-05-15T17:36:14.953Z,94761.59
2023-05-15T17:38:41.935Z,94746.81
2023-05-15T17:41:08.759Z,94773.31
2023-05-15T17:43:36.201Z,94777.03
2023-05-15T17:46:03.840Z,94757.34
2023-05-15T17:48:31.346Z,94738.06
2023-05-15T17:50:58.546Z,94772.31
2023-05-15T17:53:28.399Z,94781.03
2023-05-15T17:55:56.294Z,94785.28
2023-05-15T17:58:23.197Z,94751.25
2023-05-15T18:00:52.152Z,94734.53
2023-05-15T18:03:18.897Z,94768.00
2023-05-15T18:05:47.106Z,94761.97
2023-05-15T18:08:14.478Z,94742.94
2023-05-15T18:10:41.119Z,94719.19
2023-05-15T18:13:09.959Z,94699.94
2023-05-15T18:15:36.596Z,94733.09
2023-05-15T18:18:04.122Z,94740.75
2023-05-15T18:20:30.855Z,94776.75
2023-05-15T18:22:57.696Z,94776.25
2023-05-15T18:25:24.924Z,94774.56
2023-05-15T18:27:55.931Z,94765.53
2023-05-15T18:30:29.931Z,94765.28
2023-05-15T18:33:04.793Z,94749.97
2023-05-15T18:35:45.295Z,94710.13
2023-05-15T18:38:19.931Z,94729.19
2023-05-15T18:40:57.463Z,94743.16
2023-05-15T18:43:37.352Z,94794.16
2023-05-15T18:46:08.084Z,94704.31
2023-05-15T18:48:46.343Z,94758.63
2023-05-15T18:51:13.249Z,94689.09
2023-05-15T18:53:40.180Z,94788.41
2023-05-15T18:56:07.003Z,94787.66
2023-05-15T18:58:34.474Z,94759.38
2023-05-15T19:01:01.220Z,94785.56
2023-05-15T19:03:28.095Z,94787.81
2023-05-15T19:05:54.834Z,94797.78
2023-05-15T19:08:22.146Z,94798.06
2023-05-15T19:10:49.312Z,94805.75
2023-05-15T19:13:16.496Z,94740.88
2023-05-15T19:15:53.524Z,94796.47
2023-05-15T19:18:20.605Z,94796.03
2023-05-15T19:20:50.588Z,94809.28
2023-05-15T19:23:17.434Z,94775.00
2023-05-15T19:25:45.202Z,94805.75
2023-05-15T19:28:13.050Z,94757.94
2023-05-15T19:30:39.959Z,94794.00
2023-05-15T19:33:06.803Z,94788.44
2023-05-15T19:35:37.651Z,94827.47
2023-05-15T19:38:04.839Z,94802.19
2023-05-15T19:40:31.923Z,94809.66
2023-05-15T19:42:58.997Z,94800.63
2023-05-15T19:45:25.748Z,94799.09
2023-05-15T19:47:52.756Z,94798.88
2023-05-15T19:50:19.911Z,94791.34
2023-05-15T19:52:46.967Z,94786.09
2023-05-15T19:55:13.960Z,94795.88
2023-05-15T19:57:40.742Z,94807.09
2023-05-15T20:00:08.506Z,94793.56
2023-05-15T20:02:35.807Z,94815.31
2023-05-15T20:05:02.548Z,94809.28
2023-05-15T20:07:29.493Z,94753.25
2023-05-15T20:09:56.261Z,94773.81
2023-05-15T20:12:23.226Z,94724.06
2023-05-15T20:14:50.789Z,94789.41
2023-05-15T20:17:18.480Z,94748.34
2023-05-15T20:19:46.809Z,94765.34
2023-05-15T20:22:13.847Z,94796.56
2023-05-15T20:24:41.255Z,94783.09
2023-05-15T20:27:08.476Z,94720.22
2023-05-15T20:29:36.197Z,94752.56
2023-05-15T20:32:04.228Z,94770.84
2023-05-15T20:34:32.837Z,94755.78
2023-05-15T20:36:59.497Z,94772.81
2023-05-15T20:39:26.814Z,94757.06
2023-05-15T20:41:53.642Z,94737.56
2023-05-15T20:44:20.764Z,94739.88
2023-05-15T20:46:47.400Z,94738.44
2023-05-15T20:49:14.400Z,94740.13
2023-05-15T20:51:43.727Z,94747.59
2023-05-15T20:54:10.369Z,94744.38
2023-05-15T20:56:37.316Z,94716.38
2023-05-15T20:59:04.065Z,94722.19
2023-05-15T21:01:30.922Z,94688.53
2023-05-15T21:03:57.695Z,94711.59
2023-05-15T21:06:24.815Z,94687.94
2023-05-15T21:08:51.706Z,94722.53
2023-05-15T21:11:18.803Z,94727.25
2023-05-15T21:13:45.402Z,94710.56
2023-05-15T21:16:12.164Z,94731.25
2023-05-15T21:18:39.309Z,94740.53
2023-05-15T21:21:09.321Z,94748.22
2023-05-15T21:23:36.726Z,94744.94
2023-05-15T21:26:04.050Z,94698.63
2023-05-15T21:28:31.038Z,94691.53
2023-05-15T21:30:57.847Z,94721.94
2023-05-15T21:33:24.509Z,94713.00
2023-05-15T21:35:51.759Z,94740.50
2023-05-15T21:38:18.729Z,94728.25
2023-05-15T21:40:45.487Z,94737.53
2023-05-15T21:43:12.298Z,94746.75
2023-05-15T21:45:39.724Z,94727.50
2023-05-15T21:48:06.874Z,94700.72
2023-05-15T21:50:33.765Z,94737.47
2023-05-15T21:53:00.800Z,94721.28
2023-05-15T21:55:27.595Z,94728.06
2023-05-15T21:57:54.339Z,94712.06
2023-05-15T22:00:21.001Z,94738.28
2023-05-15T22:02:47.984Z,94736.97
2023-05-15T22:05:15.347Z,94727.94
2023-05-15T22:07:42.363Z,94700.72
2023-05-15T22:10:13.813Z,94726.69
2023-05-15T22:12:40.577Z,94756.28
2023-05-15T22:15:07.894Z,94756.00
2023-05-15T22:17:37.041Z,94751.75
2023-05-15T22:20:08.142Z,94739.03
2023-05-15T22:22:35.892Z,94751.22
2023-05-15T22:25:02.726Z,94755.22
2023-05-15T22:27:29.336Z,94753.41
2023-05-15T22:29:56.138Z,94744.75
2023-05-15T22:32:23.017Z,94726.91
2023-05-15T22:34:49.990Z,94731.19
2023-05-15T22:37:16.662Z,94738.63
2023-05-15T22:39:43.943Z,94740.19
2023-05-15T22:42:10.685Z,94749.97
2023-05-15T22:44:37.459Z,94727.75
2023-05-15T22:47:04.291Z,94737.28
2023-05-15T22:49:31.103Z,94738.81
2023-05-15T22:51:58.262Z,94742.34
2023-05-15T22:54:25.171Z,94725.16
2023-05-15T22:56:52.603Z,94713.94
2023-05-15T22:59:20.217Z,94709.19
2023-05-15T23:01:47.675Z,94720.22
2023-05-15T23:04:15.113Z,94727.66
2023-05-15T23:06:41.938Z,94696.75
2023-05-15T23:09:09.108Z,94730.44
2023-05-15T23:11:36.085Z,94717.94
2023-05-15T23:14:03.731Z,94728.97
2023-05-15T23:16:30.990Z,94732.94
2023-05-15T23:18:57.980Z,94734.47
2023-05-15T23:21:24.866Z,94706.50
2023-05-15T23:23:51.750Z,94702.44
2023-05-15T23:26:18.455Z,94723.66
2023-05-15T23:28:45.344Z,94727.19
2023-05-15T23:31:15.204Z,94723.72
2023-05-15T23:33:41.967Z,94711.88
2023-05-15T23:36:08.949Z,94705.44
2023-05-15T23:38:35.857Z,94711.44
2023-05-15T23:41:02.616Z,94648.88
2023-05-15T23:43:29.814Z,94718.22
2023-05-15T23:45:56.457Z,94708.69
2023-05-15T23:48:23.120Z,94694.41
2023-05-15T23:50:50.225Z,94697.19
2023-05-15T23:53:16.982Z,94688.91
2023-05-15T23:55:43.596Z,94692.69
2023-05-15T23:58:10.227Z,94711.13
